Decoded Metar for KINL (INTERNATIONAL FALLS in MN, USA) (IATA:INL) | Meteo·Mobile Aviation Weather
aviador You're here:

KINL Decoded Metar

INTERNATIONAL FALLS in MN, USA
Report Time2020-02-18 22:55:00
UTC Time2020-02-18 23:07:59
Flight Rules vfr VFR
Wind280° at 14 Gusting to 20 kt
W.Decomp.*RWY 31: 11.7 kt HW 7.6 kt LCW
RWY 22: 7.6 kt HW 11.7 kt RCW
Visibility9999 m
Phenomena:N/A
Clouds:N/A
Expected CloudBase > 3,600 ft AGL from Temp-Dew spread
CeilingNone
Temp-14°C (ISA -27)
Dew Point-23°C (47% RH)
AAT-22.7°C
QNH1025 hPa
Density Alt-2,569 ft
Elevation1,181 ft
Report Wrong Elevation
Raw Report
KINL 182255Z AUTO 28014G20KT 10SM CLR M14/M23 A3027 RMK AO2 SLP281
T11441228=

Extra information for KINL:More info

Metar Taf Metar & Taf Last 4 Metars F.Rules Stats Wind Profile Meteogram Temp Stats Airport Information Weather charts Add Link Nearby VenuesMetar ALERT Operation Metar Decoded Social comments

AIRNAV info for KINL